sensor_id;sensor_type;location;lat;lon;timestamp;pressure;altitude;pressure_sealevel;temperature;humidity
77077;BME280;66003;52.286;104.306;2023-08-06T00:00:39;95423.75;;;27.38;48.90
77077;BME280;66003;52.286;104.306;2023-08-06T00:03:06;95427.97;;;27.46;48.72
77077;BME280;66003;52.286;104.306;2023-08-06T00:05:32;95422.22;;;27.33;48.70
77077;BME280;66003;52.286;104.306;2023-08-06T00:07:58;95430.47;;;27.33;48.83
77077;BME280;66003;52.286;104.306;2023-08-06T00:10:24;95436.25;;;27.05;49.30
77077;BME280;66003;52.286;104.306;2023-08-06T00:12:50;95437.88;;;26.99;49.32
77077;BME280;66003;52.286;104.306;2023-08-06T00:15:16;95432.06;;;26.89;49.53
77077;BME280;66003;52.286;104.306;2023-08-06T00:17:42;95436.38;;;26.90;49.82
77077;BME280;66003;52.286;104.306;2023-08-06T00:20:09;95433.25;;;26.88;49.88
77077;BME280;66003;52.286;104.306;2023-08-06T00:22:36;95429.31;;;26.93;50.21
77077;BME280;66003;52.286;104.306;2023-08-06T00:25:04;95441.66;;;27.12;49.89
77077;BME280;66003;52.286;104.306;2023-08-06T00:27:32;95430.97;;;27.24;49.03
77077;BME280;66003;52.286;104.306;2023-08-06T00:29:59;95420.44;;;27.50;48.59
77077;BME280;66003;52.286;104.306;2023-08-06T00:32:25;95434.63;;;27.79;48.08
77077;BME280;66003;52.286;104.306;2023-08-06T00:34:52;95425.94;;;28.11;46.82
77077;BME280;66003;52.286;104.306;2023-08-06T00:37:19;95419.06;;;28.53;46.47
77077;BME280;66003;52.286;104.306;2023-08-06T00:39:46;95423.44;;;28.97;45.39
77077;BME280;66003;52.286;104.306;2023-08-06T00:42:12;95424.63;;;29.39;44.24
77077;BME280;66003;52.286;104.306;2023-08-06T00:44:40;95422.16;;;29.84;43.69
77077;BME280;66003;52.286;104.306;2023-08-06T00:47:09;95429.94;;;30.41;42.67
77077;BME280;66003;52.286;104.306;2023-08-06T00:49:36;95423.25;;;30.59;41.22
77077;BME280;66003;52.286;104.306;2023-08-06T00:52:04;95434.78;;;30.86;41.11
77077;BME280;66003;52.286;104.306;2023-08-06T00:54:31;95430.84;;;30.87;40.95
77077;BME280;66003;52.286;104.306;2023-08-06T00:56:58;95418.94;;;30.74;41.34
77077;BME280;66003;52.286;104.306;2023-08-06T00:59:25;95426.13;;;30.55;40.68
77077;BME280;66003;52.286;104.306;2023-08-06T01:01:52;95424.69;;;30.31;40.94
77077;BME280;66003;52.286;104.306;2023-08-06T01:04:18;95429.69;;;30.20;40.56
77077;BME280;66003;52.286;104.306;2023-08-06T01:06:51;95428.47;;;30.21;41.70
77077;BME280;66003;52.286;104.306;2023-08-06T01:12:16;95433.66;;;29.99;41.21
77077;BME280;66003;52.286;104.306;2023-08-06T01:15:00;95417.09;;;30.19;41.79
77077;BME280;66003;52.286;104.306;2023-08-06T01:17:31;95415.56;;;29.98;41.41
77077;BME280;66003;52.286;104.306;2023-08-06T01:19:58;95416.41;;;29.95;41.11
77077;BME280;66003;52.286;104.306;2023-08-06T01:22:24;95410.63;;;29.89;40.82
77077;BME280;66003;52.286;104.306;2023-08-06T01:24:51;95411.34;;;29.93;40.65
77077;BME280;66003;52.286;104.306;2023-08-06T01:27:30;95423.53;;;30.12;41.59
77077;BME280;66003;52.286;104.306;2023-08-06T01:30:08;95419.94;;;29.95;41.82
77077;BME280;66003;52.286;104.306;2023-08-06T01:32:39;95416.00;;;29.76;41.71
77077;BME280;66003;52.286;104.306;2023-08-06T01:35:07;95421.81;;;29.82;41.29
77077;BME280;66003;52.286;104.306;2023-08-06T01:37:36;95421.44;;;30.00;40.98
77077;BME280;66003;52.286;104.306;2023-08-06T01:40:21;95420.69;;;30.68;40.77
77077;BME280;66003;52.286;104.306;2023-08-06T01:42:47;95421.25;;;30.92;39.06
77077;BME280;66003;52.286;104.306;2023-08-06T01:45:14;95412.00;;;31.43;38.36
77077;BME280;66003;52.286;104.306;2023-08-06T01:47:40;95422.31;;;31.84;37.61
77077;BME280;66003;52.286;104.306;2023-08-06T01:50:06;95417.69;;;31.94;37.89
77077;BME280;66003;52.286;104.306;2023-08-06T01:52:32;95429.16;;;31.92;37.58
77077;BME280;66003;52.286;104.306;2023-08-06T01:54:58;95422.75;;;31.83;37.72
77077;BME280;66003;52.286;104.306;2023-08-06T01:57:25;95426.25;;;31.71;37.68
77077;BME280;66003;52.286;104.306;2023-08-06T01:59:51;95421.09;;;31.56;38.68
77077;BME280;66003;52.286;104.306;2023-08-06T02:02:17;95414.91;;;31.23;38.11
77077;BME280;66003;52.286;104.306;2023-08-06T02:04:43;95427.50;;;31.08;38.42
77077;BME280;66003;52.286;104.306;2023-08-06T02:07:09;95429.09;;;30.93;38.76
77077;BME280;66003;52.286;104.306;2023-08-06T02:09:35;95425.50;;;30.80;38.82
77077;BME280;66003;52.286;104.306;2023-08-06T02:12:02;95425.22;;;30.58;39.96
77077;BME280;66003;52.286;104.306;2023-08-06T02:14:28;95425.88;;;30.46;40.44
77077;BME280;66003;52.286;104.306;2023-08-06T02:16:55;95397.63;;;30.26;40.25
77077;BME280;66003;52.286;104.306;2023-08-06T02:19:21;95423.22;;;30.26;40.16
77077;BME280;66003;52.286;104.306;2023-08-06T02:21:47;95422.84;;;30.24;40.09
77077;BME280;66003;52.286;104.306;2023-08-06T02:24:13;95409.84;;;30.08;39.49
77077;BME280;66003;52.286;104.306;2023-08-06T02:26:39;95421.66;;;30.09;39.88
77077;BME280;66003;52.286;104.306;2023-08-06T02:29:05;95420.78;;;30.12;40.50
77077;BME280;66003;52.286;104.306;2023-08-06T02:31:32;95398.63;;;29.99;39.70
77077;BME280;66003;52.286;104.306;2023-08-06T02:33:58;95424.69;;;29.95;39.80
77077;BME280;66003;52.286;104.306;2023-08-06T02:36:26;95416.66;;;29.84;40.33
77077;BME280;66003;52.286;104.306;2023-08-06T02:38:55;95414.22;;;29.86;40.30
77077;BME280;66003;52.286;104.306;2023-08-06T02:41:22;95415.72;;;29.91;39.85
77077;BME280;66003;52.286;104.306;2023-08-06T02:43:48;95416.84;;;29.93;40.28
77077;BME280;66003;52.286;104.306;2023-08-06T02:46:14;95414.38;;;29.99;40.43
77077;BME280;66003;52.286;104.306;2023-08-06T02:48:40;95419.16;;;29.95;40.13
77077;BME280;66003;52.286;104.306;2023-08-06T02:51:06;95421.38;;;30.03;40.07
77077;BME280;66003;52.286;104.306;2023-08-06T02:53:33;95421.66;;;30.25;40.00
77077;BME280;66003;52.286;104.306;2023-08-06T02:55:59;95419.59;;;30.29;39.75
77077;BME280;66003;52.286;104.306;2023-08-06T02:58:25;95419.25;;;30.27;39.34
77077;BME280;66003;52.286;104.306;2023-08-06T03:01:02;95420.50;;;30.59;39.54
77077;BME280;66003;52.286;104.306;2023-08-06T03:03:30;95422.56;;;30.55;38.98
77077;BME280;66003;52.286;104.306;2023-08-06T03:05:56;95423.59;;;30.61;38.96
77077;BME280;66003;52.286;104.306;2023-08-06T03:08:23;95408.59;;;30.62;38.72
77077;BME280;66003;52.286;104.306;2023-08-06T03:10:50;95408.94;;;30.64;38.70
77077;BME280;66003;52.286;104.306;2023-08-06T03:13:17;95417.94;;;30.68;39.03
77077;BME280;66003;52.286;104.306;2023-08-06T03:15:43;95417.13;;;30.83;39.13
77077;BME280;66003;52.286;104.306;2023-08-06T03:18:09;95415.47;;;31.02;38.63
77077;BME280;66003;52.286;104.306;2023-08-06T03:20:36;95417.09;;;31.16;37.99
77077;BME280;66003;52.286;104.306;2023-08-06T03:23:02;95389.59;;;31.12;38.00
77077;BME280;66003;52.286;104.306;2023-08-06T03:25:28;95381.63;;;31.43;37.05
77077;BME280;66003;52.286;104.306;2023-08-06T03:27:56;95401.06;;;31.69;36.95
77077;BME280;66003;52.286;104.306;2023-08-06T03:30:22;95408.50;;;31.97;36.40
77077;BME280;66003;52.286;104.306;2023-08-06T03:32:48;95392.91;;;32.16;36.46
77077;BME280;66003;52.286;104.306;2023-08-06T03:35:14;95398.13;;;32.52;35.67
77077;BME280;66003;52.286;104.306;2023-08-06T03:37:40;95404.53;;;33.09;35.51
77077;BME280;66003;52.286;104.306;2023-08-06T03:40:07;95396.66;;;33.63;34.53
77077;BME280;66003;52.286;104.306;2023-08-06T03:42:33;95395.53;;;34.04;33.34
77077;BME280;66003;52.286;104.306;2023-08-06T03:44:59;95411.75;;;34.46;33.19
77077;BME280;66003;52.286;104.306;2023-08-06T03:47:25;95395.06;;;34.77;32.23
77077;BME280;66003;52.286;104.306;2023-08-06T03:49:51;95402.03;;;35.09;32.00
77077;BME280;66003;52.286;104.306;2023-08-06T03:52:18;95401.16;;;35.39;31.24
77077;BME280;66003;52.286;104.306;2023-08-06T03:54:44;95404.38;;;35.56;31.01
77077;BME280;66003;52.286;104.306;2023-08-06T03:57:10;95395.88;;;35.41;31.68
77077;BME280;66003;52.286;104.306;2023-08-06T03:59:36;95399.13;;;35.58;30.96
77077;BME280;66003;52.286;104.306;2023-08-06T04:02:02;95398.31;;;35.76;30.46
77077;BME280;66003;52.286;104.306;2023-08-06T04:04:29;95388.88;;;35.92;30.78
77077;BME280;66003;52.286;104.306;2023-08-06T04:06:55;95389.28;;;36.08;30.42
77077;BME280;66003;52.286;104.306;2023-08-06T04:09:21;95385.84;;;36.13;30.30
77077;BME280;66003;52.286;104.306;2023-08-06T04:11:47;95381.94;;;35.87;30.09
77077;BME280;66003;52.286;104.306;2023-08-06T04:14:13;95394.03;;;35.75;31.18
77077;BME280;66003;52.286;104.306;2023-08-06T04:16:39;95380.88;;;35.66;30.88
77077;BME280;66003;52.286;104.306;2023-08-06T04:19:05;95375.19;;;35.52;30.48
77077;BME280;66003;52.286;104.306;2023-08-06T04:21:31;95367.97;;;35.36;31.12
77077;BME280;66003;52.286;104.306;2023-08-06T04:23:58;95382.91;;;35.47;31.19
77077;BME280;66003;52.286;104.306;2023-08-06T04:26:24;95384.44;;;35.58;31.44
77077;BME280;66003;52.286;104.306;2023-08-06T04:28:50;95359.72;;;35.69;30.70
77077;BME280;66003;52.286;104.306;2023-08-06T04:31:16;95375.50;;;36.14;29.81
77077;BME280;66003;52.286;104.306;2023-08-06T04:33:42;95367.16;;;36.14;29.64
77077;BME280;66003;52.286;104.306;2023-08-06T04:36:08;95367.28;;;35.87;29.66
77077;BME280;66003;52.286;104.306;2023-08-06T04:38:34;95367.63;;;35.52;29.82
77077;BME280;66003;52.286;104.306;2023-08-06T04:41:02;95362.84;;;35.43;30.41
77077;BME280;66003;52.286;104.306;2023-08-06T04:43:29;95360.34;;;35.18;30.47
77077;BME280;66003;52.286;104.306;2023-08-06T04:45:55;95357.22;;;34.70;30.90
77077;BME280;66003;52.286;104.306;2023-08-06T04:48:22;95350.09;;;34.11;31.84
77077;BME280;66003;52.286;104.306;2023-08-06T04:50:50;95354.00;;;33.83;32.43
77077;BME280;66003;52.286;104.306;2023-08-06T04:53:16;95348.59;;;33.57;32.74
77077;BME280;66003;52.286;104.306;2023-08-06T04:55:43;95357.88;;;33.42;33.19
77077;BME280;66003;52.286;104.306;2023-08-06T04:58:10;95357.38;;;33.34;32.81
77077;BME280;66003;52.286;104.306;2023-08-06T05:00:36;95355.97;;;33.17;33.25
77077;BME280;66003;52.286;104.306;2023-08-06T05:03:02;95339.63;;;33.10;33.23
77077;BME280;66003;52.286;104.306;2023-08-06T05:05:28;95350.56;;;33.26;33.59
77077;BME280;66003;52.286;104.306;2023-08-06T05:07:56;95350.16;;;33.37;33.51
77077;BME280;66003;52.286;104.306;2023-08-06T05:10:26;95330.94;;;33.42;33.30
77077;BME280;66003;52.286;104.306;2023-08-06T05:12:53;95347.69;;;33.60;33.20
77077;BME280;66003;52.286;104.306;2023-08-06T05:15:19;95340.00;;;33.64;33.02
77077;BME280;66003;52.286;104.306;2023-08-06T05:17:45;95341.44;;;33.69;32.51
77077;BME280;66003;52.286;104.306;2023-08-06T05:20:12;95340.91;;;33.83;32.67
77077;BME280;66003;52.286;104.306;2023-08-06T05:22:38;95339.69;;;33.84;32.19
77077;BME280;66003;52.286;104.306;2023-08-06T05:25:04;95347.47;;;33.98;32.12
77077;BME280;66003;52.286;104.306;2023-08-06T05:27:32;95344.94;;;33.91;32.41
77077;BME280;66003;52.286;104.306;2023-08-06T05:29:58;95334.47;;;33.86;31.71
77077;BME280;66003;52.286;104.306;2023-08-06T05:32:24;95335.56;;;33.67;32.66
77077;BME280;66003;52.286;104.306;2023-08-06T05:34:50;95333.09;;;33.69;32.04
77077;BME280;66003;52.286;104.306;2023-08-06T05:37:16;95335.31;;;33.74;31.88
77077;BME280;66003;52.286;104.306;2023-08-06T05:39:42;95330.72;;;33.80;32.07
77077;BME280;66003;52.286;104.306;2023-08-06T05:42:09;95324.75;;;33.91;32.39
77077;BME280;66003;52.286;104.306;2023-08-06T05:44:35;95335.75;;;34.03;32.16
77077;BME280;66003;52.286;104.306;2023-08-06T05:47:01;95333.59;;;33.98;32.06
77077;BME280;66003;52.286;104.306;2023-08-06T05:49:27;95330.91;;;33.86;32.25
77077;BME280;66003;52.286;104.306;2023-08-06T05:51:53;95330.59;;;33.84;32.67
77077;BME280;66003;52.286;104.306;2023-08-06T05:54:19;95334.97;;;33.72;32.20
77077;BME280;66003;52.286;104.306;2023-08-06T05:56:45;95334.00;;;33.66;32.18
77077;BME280;66003;52.286;104.306;2023-08-06T05:59:11;95327.56;;;33.69;32.37
77077;BME280;66003;52.286;104.306;2023-08-06T06:01:38;95320.84;;;33.48;32.86
77077;BME280;66003;52.286;104.306;2023-08-06T06:04:04;95320.19;;;33.44;32.69
77077;BME280;66003;52.286;104.306;2023-08-06T06:06:30;95323.69;;;33.35;32.73
77077;BME280;66003;52.286;104.306;2023-08-06T06:08:56;95315.50;;;33.32;33.30
77077;BME280;66003;52.286;104.306;2023-08-06T06:11:22;95303.84;;;33.15;33.18
77077;BME280;66003;52.286;104.306;2023-08-06T06:13:51;95306.78;;;33.21;33.35
77077;BME280;66003;52.286;104.306;2023-08-06T06:16:18;95305.94;;;33.11;33.60
77077;BME280;66003;52.286;104.306;2023-08-06T06:18:44;95290.28;;;33.17;33.84
77077;BME280;66003;52.286;104.306;2023-08-06T06:21:10;95295.69;;;33.21;33.38
77077;BME280;66003;52.286;104.306;2023-08-06T06:23:37;95286.19;;;33.22;33.65
77077;BME280;66003;52.286;104.306;2023-08-06T06:26:03;95285.81;;;33.32;33.12
77077;BME280;66003;52.286;104.306;2023-08-06T06:28:29;95289.47;;;33.51;33.06
77077;BME280;66003;52.286;104.306;2023-08-06T06:31:03;95299.84;;;33.69;33.04
77077;BME280;66003;52.286;104.306;2023-08-06T06:33:29;95287.81;;;33.63;33.28
77077;BME280;66003;52.286;104.306;2023-08-06T06:35:55;95281.88;;;33.74;32.98
77077;BME280;66003;52.286;104.306;2023-08-06T06:38:21;95272.09;;;33.60;32.71
77077;BME280;66003;52.286;104.306;2023-08-06T06:40:55;95280.25;;;33.85;33.01
77077;BME280;66003;52.286;104.306;2023-08-06T06:43:21;95282.56;;;33.65;32.09
77077;BME280;66003;52.286;104.306;2023-08-06T06:45:53;95275.03;;;33.34;32.71
77077;BME280;66003;52.286;104.306;2023-08-06T06:48:19;95277.63;;;32.85;33.62
77077;BME280;66003;52.286;104.306;2023-08-06T06:50:49;95269.44;;;32.69;33.58
77077;BME280;66003;52.286;104.306;2023-08-06T06:53:15;95252.41;;;32.36;34.24
77077;BME280;66003;52.286;104.306;2023-08-06T06:55:41;95250.75;;;32.39;34.61
77077;BME280;66003;52.286;104.306;2023-08-06T06:58:07;95262.19;;;32.28;34.42
77077;BME280;66003;52.286;104.306;2023-08-06T07:00:36;95257.19;;;32.36;34.16
77077;BME280;66003;52.286;104.306;2023-08-06T07:03:03;95267.06;;;32.11;34.58
77077;BME280;66003;52.286;104.306;2023-08-06T07:05:29;95256.47;;;32.10;34.83
77077;BME280;66003;52.286;104.306;2023-08-06T07:07:55;95262.31;;;32.24;34.45
77077;BME280;66003;52.286;104.306;2023-08-06T07:10:21;95262.25;;;32.37;33.85
77077;BME280;66003;52.286;104.306;2023-08-06T07:12:47;95250.09;;;32.35;33.72
77077;BME280;66003;52.286;104.306;2023-08-06T07:15:14;95257.19;;;32.36;33.70
77077;BME280;66003;52.286;104.306;2023-08-06T07:17:40;95243.72;;;32.25;34.01
77077;BME280;66003;52.286;104.306;2023-08-06T07:20:06;95247.25;;;32.25;33.79
77077;BME280;66003;52.286;104.306;2023-08-06T07:22:33;95248.56;;;32.34;33.88
77077;BME280;66003;52.286;104.306;2023-08-06T07:24:59;95244.25;;;32.33;33.63
77077;BME280;66003;52.286;104.306;2023-08-06T07:27:25;95237.22;;;32.19;33.92
77077;BME280;66003;52.286;104.306;2023-08-06T07:29:51;95238.16;;;32.38;33.92
77077;BME280;66003;52.286;104.306;2023-08-06T07:32:18;95248.03;;;32.60;33.75
77077;BME280;66003;52.286;104.306;2023-08-06T07:34:44;95241.97;;;32.87;33.53
77077;BME280;66003;52.286;104.306;2023-08-06T07:37:10;95238.84;;;33.07;33.32
77077;BME280;66003;52.286;104.306;2023-08-06T07:39:36;95234.22;;;33.26;33.03
77077;BME280;66003;52.286;104.306;2023-08-06T07:42:05;95245.47;;;33.31;32.59
77077;BME280;66003;52.286;104.306;2023-08-06T07:44:33;95231.91;;;33.24;33.01
77077;BME280;66003;52.286;104.306;2023-08-06T07:46:59;95227.38;;;33.18;33.18
77077;BME280;66003;52.286;104.306;2023-08-06T07:49:25;95237.00;;;33.26;32.73
77077;BME280;66003;52.286;104.306;2023-08-06T07:51:51;95238.31;;;33.21;32.29
77077;BME280;66003;52.286;104.306;2023-08-06T07:54:18;95236.31;;;33.22;32.38
77077;BME280;66003;52.286;104.306;2023-08-06T07:56:45;95229.34;;;33.17;33.43
77077;BME280;66003;52.286;104.306;2023-08-06T07:59:11;95222.88;;;33.11;32.91
77077;BME280;66003;52.286;104.306;2023-08-06T08:01:37;95234.91;;;33.17;32.41
77077;BME280;66003;52.286;104.306;2023-08-06T08:04:03;95225.69;;;33.20;32.29
77077;BME280;66003;52.286;104.306;2023-08-06T08:06:30;95236.13;;;33.38;32.51
77077;BME280;66003;52.286;104.306;2023-08-06T08:08:57;95226.78;;;33.54;32.72
77077;BME280;66003;52.286;104.306;2023-08-06T08:11:23;95217.56;;;33.57;32.92
77077;BME280;66003;52.286;104.306;2023-08-06T08:13:49;95233.50;;;33.75;32.39
77077;BME280;66003;52.286;104.306;2023-08-06T08:16:16;95231.84;;;33.77;32.46
77077;BME280;66003;52.286;104.306;2023-08-06T08:18:42;95240.75;;;33.72;33.01
77077;BME280;66003;52.286;104.306;2023-08-06T08:21:08;95223.47;;;33.68;32.14
77077;BME280;66003;52.286;104.306;2023-08-06T08:23:34;95234.75;;;33.74;31.78
77077;BME280;66003;52.286;104.306;2023-08-06T08:26:00;95232.03;;;33.83;31.85
77077;BME280;66003;52.286;104.306;2023-08-06T08:28:28;95228.19;;;33.89;30.95
77077;BME280;66003;52.286;104.306;2023-08-06T08:30:54;95223.16;;;34.06;31.21
77077;BME280;66003;52.286;104.306;2023-08-06T08:33:22;95225.81;;;34.28;31.22
77077;BME280;66003;52.286;104.306;2023-08-06T08:35:48;95231.06;;;34.26;31.14
77077;BME280;66003;52.286;104.306;2023-08-06T08:38:14;95217.91;;;34.17;31.25
77077;BME280;66003;52.286;104.306;2023-08-06T08:40:46;95227.94;;;34.24;31.65
77077;BME280;66003;52.286;104.306;2023-08-06T08:43:15;95225.59;;;33.95;31.35
77077;BME280;66003;52.286;104.306;2023-08-06T08:45:42;95229.59;;;33.94;31.06
77077;BME280;66003;52.286;104.306;2023-08-06T08:48:12;95225.13;;;33.96;30.96
77077;BME280;66003;52.286;104.306;2023-08-06T08:50:40;95221.97;;;33.76;32.02
77077;BME280;66003;52.286;104.306;2023-08-06T08:53:08;95226.88;;;33.72;31.88
77077;BME280;66003;52.286;104.306;2023-08-06T08:55:34;95224.53;;;33.61;32.15
77077;BME280;66003;52.286;104.306;2023-08-06T08:58:01;95212.00;;;33.48;31.75
77077;BME280;66003;52.286;104.306;2023-08-06T09:00:28;95222.31;;;33.47;31.85
77077;BME280;66003;52.286;104.306;2023-08-06T09:02:54;95224.19;;;33.50;32.27
77077;BME280;66003;52.286;104.306;2023-08-06T09:05:23;95228.50;;;33.51;32.03
